Time;durP1;ratioP1;P1;durP2;ratioP2;P2;SDS_P1;SDS_P2;PMS_P1;PMS_P2;Temp;Humidity;BMP_temperature;BMP_pressure;BME280_temperature;BME280_humidity;BME280_pressure;Samples;Min_cycle;Max_cycle;Signal;HPM_P1;HPM_P2
2024/02/21 00:00:05;;;;;;;40.95;19.20;;;;;;;;;;5018848;28;20184;-77
2024/02/21 00:02:30;;;;;;;45.88;19.65;;;;;;;;;;5023488;28;20328;-75
2024/02/21 00:04:55;;;;;;;43.25;19.23;;;;;;;;;;5038065;28;20202;-76
2024/02/21 00:07:21;;;;;;;45.05;18.83;;;;;;;;;;5037747;28;20205;-75
2024/02/21 00:09:46;;;;;;;37.03;18.67;;;;;;;;;;5035131;28;20692;-75
2024/02/21 00:12:13;;;;;;;39.13;18.35;;;;;;;;;;5043582;28;20653;-75
2024/02/21 00:14:40;;;;;;;40.17;18.17;;;;;;;;;;5020728;28;20200;-76
2024/02/21 00:17:05;;;;;;;38.58;18.65;;;;;;;;;;5019412;28;20233;-77
2024/02/21 00:19:31;;;;;;;43.72;18.20;;;;;;;;;;5030459;28;20248;-76
2024/02/21 00:21:56;;;;;;;42.80;19.55;;;;;;;;;;5036600;28;20192;-75
2024/02/21 00:24:22;;;;;;;35.63;17.95;;;;;;;;;;5026378;28;20218;-76
2024/02/21 00:26:47;;;;;;;39.78;19.15;;;;;;;;;;5032318;28;20223;-75
2024/02/21 00:29:13;;;;;;;43.58;18.02;;;;;;;;;;5045569;28;20197;-76
2024/02/21 00:31:38;;;;;;;38.75;18.92;;;;;;;;;;5030898;28;20190;-75
2024/02/21 00:34:04;;;;;;;41.25;18.20;;;;;;;;;;5036720;28;20618;-74
2024/02/21 00:36:29;;;;;;;39.70;18.55;;;;;;;;;;5030865;28;20189;-75
2024/02/21 00:38:54;;;;;;;38.10;17.52;;;;;;;;;;5011422;28;20194;-75
2024/02/21 00:41:20;;;;;;;39.75;17.63;;;;;;;;;;5027571;28;20186;-77
2024/02/21 00:43:45;;;;;;;37.47;18.38;;;;;;;;;;5020314;28;20248;-77
2024/02/21 00:46:11;;;;;;;41.53;18.45;;;;;;;;;;5023005;28;20268;-75
2024/02/21 00:48:36;;;;;;;43.40;18.23;;;;;;;;;;5029310;28;20298;-77
2024/02/21 00:51:02;;;;;;;39.47;17.80;;;;;;;;;;5028340;28;20218;-78
2024/02/21 00:53:27;;;;;;;37.78;16.77;;;;;;;;;;5038558;28;20185;-77
2024/02/21 00:55:53;;;;;;;39.65;17.60;;;;;;;;;;5049423;28;20691;-77
2024/02/21 00:58:18;;;;;;;38.78;17.63;;;;;;;;;;5034348;28;20683;-77
2024/02/21 01:00:43;;;;;;;35.58;17.02;;;;;;;;;;5043021;28;20193;-77
2024/02/21 01:03:09;;;;;;;39.28;17.15;;;;;;;;;;5029654;28;20186;-78
2024/02/21 01:05:34;;;;;;;37.10;17.42;;;;;;;;;;5041351;28;20666;-75
2024/02/21 01:08:00;;;;;;;33.35;16.98;;;;;;;;;;5024856;28;20222;-79
2024/02/21 01:10:25;;;;;;;35.63;17.63;;;;;;;;;;5028053;28;20835;-77
2024/02/21 01:12:50;;;;;;;33.00;15.95;;;;;;;;;;5039780;28;20737;-76
2024/02/21 01:15:16;;;;;;;33.10;16.13;;;;;;;;;;5043293;28;20302;-76
2024/02/21 01:17:42;;;;;;;32.05;15.98;;;;;;;;;;5029720;28;20186;-74
2024/02/21 01:20:07;;;;;;;30.63;15.50;;;;;;;;;;5039626;28;20221;-76
2024/02/21 01:22:33;;;;;;;36.40;15.85;;;;;;;;;;5043445;28;20289;-76
2024/02/21 01:24:58;;;;;;;34.80;16.63;;;;;;;;;;5025835;28;20186;-76
2024/02/21 01:27:24;;;;;;;44.53;18.20;;;;;;;;;;5028178;28;20190;-77
2024/02/21 01:29:49;;;;;;;37.95;16.13;;;;;;;;;;5033267;28;20216;-76
2024/02/21 01:32:15;;;;;;;30.75;14.68;;;;;;;;;;5030590;28;20223;-77
2024/02/21 01:34:41;;;;;;;29.80;15.57;;;;;;;;;;5039022;28;20220;-77
2024/02/21 01:37:07;;;;;;;30.98;15.13;;;;;;;;;;5025772;28;20566;-76
2024/02/21 01:39:33;;;;;;;28.08;14.55;;;;;;;;;;5030346;28;20269;-76
2024/02/21 01:41:59;;;;;;;26.83;14.52;;;;;;;;;;5032029;28;20319;-75
2024/02/21 01:44:25;;;;;;;28.20;14.35;;;;;;;;;;5047653;28;20272;-77
2024/02/21 01:46:51;;;;;;;26.88;14.40;;;;;;;;;;5030581;28;20204;-75
2024/02/21 01:49:17;;;;;;;33.30;16.45;;;;;;;;;;5029843;28;20224;-76
2024/02/21 01:51:43;;;;;;;33.97;15.77;;;;;;;;;;5028441;28;20209;-76
2024/02/21 01:54:10;;;;;;;32.08;14.75;;;;;;;;;;5028417;28;20190;-76
2024/02/21 01:56:35;;;;;;;33.60;15.43;;;;;;;;;;5034430;28;20235;-77
2024/02/21 01:59:01;;;;;;;30.55;15.48;;;;;;;;;;5044271;28;20404;-78
2024/02/21 02:01:26;;;;;;;31.95;15.38;;;;;;;;;;5025350;28;20742;-76
2024/02/21 02:03:52;;;;;;;31.13;14.95;;;;;;;;;;5032677;28;20707;-76
2024/02/21 02:06:18;;;;;;;26.98;14.85;;;;;;;;;;5048547;28;20201;-77
2024/02/21 02:08:44;;;;;;;36.95;15.70;;;;;;;;;;5031507;28;20192;-76
2024/02/21 02:11:10;;;;;;;32.13;15.05;;;;;;;;;;5024719;28;20669;-75
2024/02/21 02:13:35;;;;;;;28.60;16.10;;;;;;;;;;5038892;28;20186;-75
2024/02/21 02:16:01;;;;;;;31.27;15.63;;;;;;;;;;5032198;28;20192;-76
2024/02/21 02:18:26;;;;;;;30.77;15.07;;;;;;;;;;5037045;28;20234;-76
2024/02/21 02:20:53;;;;;;;29.95;15.52;;;;;;;;;;5037600;28;20209;-76
2024/02/21 02:23:31;;;;;;;29.25;15.27;;;;;;;;;;5035844;28;20182;-76
2024/02/21 02:25:57;;;;;;;33.67;15.15;;;;;;;;;;5030800;28;20209;-75
2024/02/21 02:28:23;;;;;;;30.25;14.98;;;;;;;;;;5031904;28;20189;-76
2024/02/21 02:30:49;;;;;;;28.88;14.80;;;;;;;;;;5036339;28;20216;-76
2024/02/21 02:33:14;;;;;;;31.05;14.27;;;;;;;;;;5033369;28;20193;-76
2024/02/21 02:35:40;;;;;;;30.88;14.82;;;;;;;;;;5032825;28;20190;-77
2024/02/21 02:38:06;;;;;;;31.70;15.85;;;;;;;;;;5044055;28;20186;-75
2024/02/21 02:40:33;;;;;;;26.55;14.38;;;;;;;;;;5029704;28;20498;-76
2024/02/21 02:42:59;;;;;;;30.15;14.77;;;;;;;;;;5030071;28;20186;-76
2024/02/21 02:45:26;;;;;;;33.45;14.95;;;;;;;;;;5033562;28;20271;-76
2024/02/21 02:47:54;;;;;;;29.17;14.88;;;;;;;;;;5039372;28;20182;-75
2024/02/21 02:50:19;;;;;;;32.20;14.63;;;;;;;;;;5036950;28;20222;-76
2024/02/21 02:52:45;;;;;;;33.72;14.95;;;;;;;;;;5032964;28;20517;-75
2024/02/21 02:55:11;;;;;;;31.77;15.68;;;;;;;;;;5027973;28;20328;-76
2024/02/21 02:57:36;;;;;;;33.70;16.35;;;;;;;;;;5019717;28;20173;-76
2024/02/21 03:00:02;;;;;;;30.23;14.55;;;;;;;;;;5042855;28;20228;-75
2024/02/21 03:02:28;;;;;;;30.08;14.77;;;;;;;;;;5042528;28;20194;-76
2024/02/21 03:04:53;;;;;;;38.38;15.82;;;;;;;;;;5055313;28;20200;-75
2024/02/21 03:07:19;;;;;;;34.95;14.93;;;;;;;;;;5035727;28;20221;-76
2024/02/21 03:09:45;;;;;;;31.58;15.20;;;;;;;;;;5035894;28;20226;-76
2024/02/21 03:12:11;;;;;;;32.50;14.73;;;;;;;;;;5030717;28;20202;-76
2024/02/21 03:14:37;;;;;;;33.65;15.60;;;;;;;;;;5022145;28;20193;-76
2024/02/21 03:17:03;;;;;;;26.88;15.23;;;;;;;;;;5046537;28;20193;-75
2024/02/21 03:19:29;;;;;;;33.60;15.75;;;;;;;;;;5046344;28;20249;-76
2024/02/21 03:21:55;;;;;;;26.58;14.38;;;;;;;;;;5029578;28;20724;-76
2024/02/21 03:24:21;;;;;;;31.17;14.75;;;;;;;;;;5027994;28;20194;-76
2024/02/21 03:26:48;;;;;;;33.67;14.60;;;;;;;;;;5041166;28;20268;-75
2024/02/21 03:29:14;;;;;;;33.08;14.65;;;;;;;;;;5036340;28;20670;-75
2024/02/21 03:31:40;;;;;;;27.92;15.02;;;;;;;;;;5029549;28;20216;-75
2024/02/21 03:34:05;;;;;;;34.45;15.52;;;;;;;;;;5044326;28;20197;-76
2024/02/21 03:36:31;;;;;;;31.13;15.88;;;;;;;;;;5048419;28;20296;-75
2024/02/21 03:38:56;;;;;;;31.80;15.65;;;;;;;;;;5036971;28;20221;-75
2024/02/21 03:41:22;;;;;;;31.88;16.27;;;;;;;;;;5050208;28;20181;-75
2024/02/21 03:43:47;;;;;;;37.28;16.48;;;;;;;;;;5036027;28;20190;-75
2024/02/21 03:46:14;;;;;;;31.35;16.33;;;;;;;;;;5045219;28;20189;-76
2024/02/21 03:48:40;;;;;;;29.73;15.05;;;;;;;;;;5029655;28;20244;-76
2024/02/21 03:51:05;;;;;;;31.67;15.27;;;;;;;;;;5039501;28;20312;-75
2024/02/21 03:53:30;;;;;;;28.20;16.20;;;;;;;;;;5032472;28;20224;-76
2024/02/21 03:55:56;;;;;;;35.50;15.80;;;;;;;;;;5047818;28;20204;-75
2024/02/21 03:58:22;;;;;;;35.40;16.83;;;;;;;;;;5026005;28;20365;-75
2024/02/21 04:00:47;;;;;;;31.25;16.27;;;;;;;;;;5042474;28;20181;-77
2024/02/21 04:03:13;;;;;;;33.92;16.27;;;;;;;;;;5020708;28;20186;-75
2024/02/21 04:05:39;;;;;;;32.75;16.42;;;;;;;;;;5025219;28;20246;-75
2024/02/21 04:08:05;;;;;;;37.20;16.50;;;;;;;;;;5029992;28;20193;-75
2024/02/21 04:10:31;;;;;;;29.92;16.60;;;;;;;;;;5028377;28;20250;-76
2024/02/21 04:12:56;;;;;;;31.00;15.90;;;;;;;;;;5046298;28;20193;-75
2024/02/21 04:15:22;;;;;;;31.00;15.82;;;;;;;;;;5042442;28;20193;-75
2024/02/21 04:17:48;;;;;;;30.80;16.40;;;;;;;;;;5045258;28;20687;-77
2024/02/21 04:20:15;;;;;;;34.83;16.63;;;;;;;;;;5031492;28;20227;-76
2024/02/21 04:22:44;;;;;;;35.20;16.63;;;;;;;;;;5029238;28;20707;-77
2024/02/21 04:25:10;;;;;;;30.98;16.33;;;;;;;;;;5039264;28;20251;-76
2024/02/21 04:27:36;;;;;;;34.65;15.15;;;;;;;;;;5029541;28;20238;-76
2024/02/21 04:30:02;;;;;;;33.72;15.82;;;;;;;;;;5026891;28;20735;-77
2024/02/21 04:32:28;;;;;;;30.60;15.20;;;;;;;;;;5028037;28;20239;-76
2024/02/21 04:34:53;;;;;;;25.77;14.77;;;;;;;;;;5021962;28;20193;-76
2024/02/21 04:37:19;;;;;;;29.02;15.05;;;;;;;;;;5040897;28;20190;-76
2024/02/21 04:39:45;;;;;;;30.30;15.13;;;;;;;;;;5043397;28;20272;-75
2024/02/21 04:42:10;;;;;;;30.67;15.30;;;;;;;;;;5046727;28;20194;-76
2024/02/21 04:44:36;;;;;;;36.78;16.25;;;;;;;;;;5032336;28;20352;-75
2024/02/21 04:47:03;;;;;;;32.35;14.85;;;;;;;;;;5042082;28;20205;-76
2024/02/21 04:49:29;;;;;;;29.33;14.68;;;;;;;;;;5040091;28;20221;-76
2024/02/21 04:51:54;;;;;;;37.15;16.40;;;;;;;;;;5034884;28;20635;-76
2024/02/21 04:54:20;;;;;;;30.90;15.75;;;;;;;;;;5047947;28;20208;-76
2024/02/21 04:56:45;;;;;;;28.88;15.80;;;;;;;;;;5016610;28;20272;-76
2024/02/21 04:59:11;;;;;;;33.97;15.68;;;;;;;;;;5031559;28;20190;-76
2024/02/21 05:01:36;;;;;;;31.75;15.45;;;;;;;;;;5023834;28;20190;-77
2024/02/21 05:04:02;;;;;;;33.05;17.17;;;;;;;;;;5031009;28;20182;-76
2024/02/21 05:06:28;;;;;;;34.42;14.95;;;;;;;;;;5030325;28;20187;-76
2024/02/21 05:08:55;;;;;;;24.70;14.13;;;;;;;;;;5020225;28;20668;-76
2024/02/21 05:11:21;;;;;;;31.98;15.45;;;;;;;;;;5028823;28;20218;-76
2024/02/21 05:13:47;;;;;;;27.10;14.93;;;;;;;;;;5039841;28;20282;-76
2024/02/21 05:16:12;;;;;;;32.85;14.85;;;;;;;;;;5022893;28;20288;-77
2024/02/21 05:18:38;;;;;;;31.00;15.02;;;;;;;;;;5018676;28;20738;-77
2024/02/21 05:21:03;;;;;;;29.83;14.88;;;;;;;;;;5023828;28;20183;-76
2024/02/21 05:23:29;;;;;;;31.75;16.40;;;;;;;;;;5038415;28;20256;-76
2024/02/21 05:25:55;;;;;;;33.28;15.13;;;;;;;;;;5032064;28;20287;-76
2024/02/21 05:28:20;;;;;;;31.58;15.25;;;;;;;;;;5033265;28;20194;-76
2024/02/21 05:30:46;;;;;;;29.35;13.77;;;;;;;;;;5042211;28;20638;-77
2024/02/21 05:33:12;;;;;;;31.98;14.70;;;;;;;;;;5019794;28;20680;-76
2024/02/21 05:35:38;;;;;;;27.15;14.27;;;;;;;;;;5030542;28;20586;-76
2024/02/21 05:38:11;;;;;;;27.15;14.52;;;;;;;;;;5022730;28;20250;-77
2024/02/21 05:40:36;;;;;;;30.85;14.23;;;;;;;;;;5029109;28;20194;-76
2024/02/21 05:43:02;;;;;;;27.75;13.73;;;;;;;;;;5040148;28;20246;-76
2024/02/21 05:45:27;;;;;;;26.25;13.27;;;;;;;;;;5024388;28;20247;-76
2024/02/21 05:47:53;;;;;;;26.73;13.43;;;;;;;;;;5024645;28;20182;-76
2024/02/21 05:50:21;;;;;;;29.10;13.45;;;;;;;;;;5040237;28;20218;-75
2024/02/21 05:52:46;;;;;;;29.45;12.95;;;;;;;;;;5039306;28;20648;-75
2024/02/21 05:55:12;;;;;;;23.95;13.02;;;;;;;;;;5049612;28;20272;-77
2024/02/21 05:57:37;;;;;;;30.75;13.88;;;;;;;;;;5033749;28;20622;-75
2024/02/21 06:00:05;;;;;;;27.52;13.05;;;;;;;;;;5033240;28;20186;-76
2024/02/21 06:02:31;;;;;;;22.27;12.65;;;;;;;;;;5038719;28;20209;-76
2024/02/21 06:04:56;;;;;;;26.25;12.88;;;;;;;;;;5036992;28;20289;-76
2024/02/21 06:07:22;;;;;;;25.17;12.90;;;;;;;;;;5045411;28;20529;-75
2024/02/21 06:09:47;;;;;;;22.48;12.25;;;;;;;;;;5031917;28;20625;-76
2024/02/21 06:12:12;;;;;;;27.90;13.52;;;;;;;;;;5033444;28;20645;-76
2024/02/21 06:14:38;;;;;;;23.60;13.15;;;;;;;;;;5030901;28;20692;-76
2024/02/21 06:17:03;;;;;;;26.70;13.75;;;;;;;;;;5045163;28;20565;-76
2024/02/21 06:19:29;;;;;;;28.80;13.50;;;;;;;;;;5029765;28;20283;-75
2024/02/21 06:21:54;;;;;;;25.45;12.80;;;;;;;;;;5047176;28;20200;-77
2024/02/21 06:24:19;;;;;;;24.33;12.57;;;;;;;;;;5044965;28;20186;-76
2024/02/21 06:26:45;;;;;;;25.38;12.68;;;;;;;;;;5042869;28;20243;-75
2024/02/21 06:29:11;;;;;;;23.80;12.30;;;;;;;;;;5027612;28;20190;-78
2024/02/21 06:31:36;;;;;;;22.90;13.07;;;;;;;;;;5037711;28;20189;-76
2024/02/21 06:34:02;;;;;;;30.75;12.80;;;;;;;;;;5036406;28;20323;-75
2024/02/21 06:36:28;;;;;;;27.08;13.05;;;;;;;;;;5041862;28;20567;-76
2024/02/21 06:38:53;;;;;;;25.13;13.35;;;;;;;;;;5032594;28;20665;-76
2024/02/21 06:41:19;;;;;;;25.08;12.73;;;;;;;;;;5020661;28;20193;-76
2024/02/21 06:43:46;;;;;;;21.48;12.18;;;;;;;;;;5036572;28;20265;-75
2024/02/21 06:46:12;;;;;;;25.75;12.68;;;;;;;;;;5039777;28;20191;-75
2024/02/21 06:48:37;;;;;;;19.95;12.50;;;;;;;;;;5035552;28;20285;-75
2024/02/21 06:51:03;;;;;;;24.70;12.60;;;;;;;;;;5041193;28;20308;-76
2024/02/21 06:53:29;;;;;;;26.85;12.80;;;;;;;;;;5033424;28;20238;-77
2024/02/21 06:55:54;;;;;;;22.02;12.07;;;;;;;;;;5031554;28;20198;-76
2024/02/21 06:58:20;;;;;;;25.67;12.98;;;;;;;;;;5028842;28;20239;-75
2024/02/21 07:00:45;;;;;;;22.02;12.23;;;;;;;;;;5028280;28;20186;-76
2024/02/21 07:03:10;;;;;;;25.80;11.93;;;;;;;;;;5037952;28;20267;-75
2024/02/21 07:05:36;;;;;;;22.25;12.15;;;;;;;;;;5044368;28;20182;-76
2024/02/21 07:08:03;;;;;;;23.30;11.95;;;;;;;;;;5049378;28;20196;-76
2024/02/21 07:10:29;;;;;;;24.33;11.07;;;;;;;;;;5035219;28;20307;-76
2024/02/21 07:12:55;;;;;;;20.25;11.18;;;;;;;;;;5015434;28;20232;-75
2024/02/21 07:15:20;;;;;;;23.60;10.93;;;;;;;;;;5032676;28;20200;-75
2024/02/21 07:17:46;;;;;;;26.20;12.23;;;;;;;;;;5028757;28;20178;-76
2024/02/21 07:20:11;;;;;;;19.55;11.30;;;;;;;;;;5030021;28;20210;-76
2024/02/21 07:22:37;;;;;;;23.40;11.40;;;;;;;;;;5021270;28;20196;-76
2024/02/21 07:25:02;;;;;;;22.65;10.63;;;;;;;;;;5028985;28;20292;-77
2024/02/21 07:27:30;;;;;;;20.33;11.35;;;;;;;;;;5030243;28;20260;-77
2024/02/21 07:29:56;;;;;;;25.33;11.30;;;;;;;;;;5037828;28;20280;-77
2024/02/21 07:32:22;;;;;;;20.17;10.30;;;;;;;;;;5012342;28;20182;-77
2024/02/21 07:34:47;;;;;;;24.52;10.13;;;;;;;;;;5034818;28;20201;-76
2024/02/21 07:37:13;;;;;;;21.02;10.68;;;;;;;;;;5040116;28;20182;-77
2024/02/21 07:39:38;;;;;;;23.08;10.50;;;;;;;;;;5039203;28;20238;-77
2024/02/21 07:42:04;;;;;;;19.40;10.43;;;;;;;;;;5030900;28;20182;-77
2024/02/21 07:44:31;;;;;;;16.70;9.27;;;;;;;;;;5021848;28;20308;-77
2024/02/21 07:46:57;;;;;;;19.00;9.40;;;;;;;;;;5043744;28;20419;-76
2024/02/21 07:49:22;;;;;;;21.05;9.23;;;;;;;;;;5030354;28;20197;-76
2024/02/21 07:51:48;;;;;;;20.08;9.32;;;;;;;;;;5024577;28;20183;-76
2024/02/21 07:54:14;;;;;;;15.93;8.80;;;;;;;;;;5020694;28;20567;-77
2024/02/21 07:56:39;;;;;;;15.52;8.27;;;;;;;;;;5031066;28;20190;-76
2024/02/21 07:59:05;;;;;;;18.17;8.75;;;;;;;;;;5041233;28;20197;-77
2024/02/21 08:01:30;;;;;;;17.45;9.25;;;;;;;;;;5029741;28;20208;-77
2024/02/21 08:03:56;;;;;;;21.02;9.85;;;;;;;;;;5032447;28;20190;-76
2024/02/21 08:06:21;;;;;;;15.48;8.50;;;;;;;;;;5020141;28;20198;-77
2024/02/21 08:08:47;;;;;;;21.40;9.05;;;;;;;;;;5041300;28;20218;-77
2024/02/21 08:11:12;;;;;;;21.55;10.02;;;;;;;;;;5031039;28;20210;-76
2024/02/21 08:13:38;;;;;;;21.45;9.70;;;;;;;;;;5028804;28;20638;-77
2024/02/21 08:16:03;;;;;;;22.63;9.73;;;;;;;;;;5025270;28;20296;-77
2024/02/21 08:18:29;;;;;;;27.45;10.55;;;;;;;;;;5029317;28;20249;-76
2024/02/21 08:20:54;;;;;;;28.98;10.20;;;;;;;;;;5012527;28;20178;-79
2024/02/21 08:23:23;;;;;;;18.50;9.57;;;;;;;;;;5023808;28;20294;-76
2024/02/21 08:25:49;;;;;;;20.70;10.40;;;;;;;;;;5013053;28;20595;-77
2024/02/21 08:28:15;;;;;;;22.48;9.98;;;;;;;;;;5030088;28;20205;-76
2024/02/21 08:30:44;;;;;;;19.77;9.40;;;;;;;;;;5013616;28;20213;-77
2024/02/21 08:33:09;;;;;;;19.92;10.35;;;;;;;;;;5012174;28;20598;-77
2024/02/21 08:35:35;;;;;;;18.77;9.50;;;;;;;;;;5028999;28;20273;-77
2024/02/21 08:38:00;;;;;;;19.58;9.98;;;;;;;;;;5030290;28;20567;-77
2024/02/21 08:40:26;;;;;;;20.13;9.18;;;;;;;;;;5029775;28;20193;-77
2024/02/21 08:42:51;;;;;;;19.67;9.85;;;;;;;;;;5028359;28;20220;-76
2024/02/21 08:45:17;;;;;;;18.48;9.40;;;;;;;;;;5031031;28;20511;-77
2024/02/21 08:47:42;;;;;;;17.30;9.57;;;;;;;;;;5028584;28;20194;-77
2024/02/21 08:50:11;;;;;;;18.88;9.10;;;;;;;;;;5027810;28;20248;-78
2024/02/21 08:52:36;;;;;;;18.25;8.73;;;;;;;;;;5028268;28;20236;-77
2024/02/21 08:55:02;;;;;;;21.10;8.93;;;;;;;;;;5013998;28;20593;-77
2024/02/21 08:57:28;;;;;;;17.73;9.43;;;;;;;;;;5032935;28;20182;-77
2024/02/21 08:59:53;;;;;;;17.52;9.18;;;;;;;;;;5029022;28;20190;-77
2024/02/21 09:02:18;;;;;;;18.98;8.85;;;;;;;;;;5031082;28;20200;-77
2024/02/21 09:04:44;;;;;;;18.92;8.50;;;;;;;;;;5029563;28;20244;-77
2024/02/21 09:07:13;;;;;;;16.05;8.40;;;;;;;;;;5030601;28;20198;-77
2024/02/21 09:09:39;;;;;;;19.20;8.82;;;;;;;;;;5013467;28;20217;-77
2024/02/21 09:12:08;;;;;;;21.40;8.55;;;;;;;;;;5033445;28;20212;-77
2024/02/21 09:14:34;;;;;;;19.63;7.45;;;;;;;;;;5033102;28;20501;-78
2024/02/21 09:17:00;;;;;;;17.88;8.75;;;;;;;;;;5025149;28;20617;-78
2024/02/21 09:19:25;;;;;;;15.18;7.65;;;;;;;;;;5038838;28;20363;-78
2024/02/21 09:21:51;;;;;;;18.92;8.80;;;;;;;;;;5033304;28;20186;-76
2024/02/21 09:24:17;;;;;;;17.65;7.97;;;;;;;;;;5032157;28;20221;-77
2024/02/21 09:26:43;;;;;;;17.42;8.38;;;;;;;;;;5027891;28;20194;-76
2024/02/21 09:29:08;;;;;;;16.85;7.40;;;;;;;;;;5005061;28;20182;-77
2024/02/21 09:31:34;;;;;;;14.50;7.93;;;;;;;;;;5036796;28;20252;-77
2024/02/21 09:33:59;;;;;;;15.52;7.85;;;;;;;;;;5036107;28;20193;-76
2024/02/21 09:36:25;;;;;;;17.08;8.23;;;;;;;;;;5034719;28;20657;-78
2024/02/21 09:38:50;;;;;;;17.05;7.72;;;;;;;;;;5035803;28;20220;-78
2024/02/21 09:41:18;;;;;;;19.42;8.82;;;;;;;;;;5026327;28;20248;-77
2024/02/21 09:43:45;;;;;;;18.60;7.60;;;;;;;;;;5029393;28;20193;-77
2024/02/21 09:46:17;;;;;;;16.05;8.13;;;;;;;;;;5027387;28;20198;-78
2024/02/21 09:49:03;;;;;;;16.27;7.85;;;;;;;;;;5023748;28;20271;-78
2024/02/21 09:51:32;;;;;;;16.40;7.97;;;;;;;;;;5004267;28;20215;-77
2024/02/21 09:53:59;;;;;;;23.58;8.82;;;;;;;;;;5028604;28;20773;-77
2024/02/21 09:56:24;;;;;;;15.90;7.90;;;;;;;;;;5032145;28;20190;-78
2024/02/21 09:58:50;;;;;;;14.25;8.05;;;;;;;;;;5019460;28;20197;-77
2024/02/21 10:01:16;;;;;;;15.23;8.43;;;;;;;;;;5031618;28;20189;-76
2024/02/21 10:03:43;;;;;;;16.00;8.57;;;;;;;;;;5025849;28;20190;-77
2024/02/21 10:06:09;;;;;;;17.83;8.05;;;;;;;;;;5021736;28;20260;-76
2024/02/21 10:08:34;;;;;;;18.85;8.98;;;;;;;;;;5028572;28;20670;-76
2024/02/21 10:11:01;;;;;;;18.10;8.82;;;;;;;;;;5019161;28;20544;-75
2024/02/21 10:13:28;;;;;;;18.08;8.18;;;;;;;;;;5027622;28;20186;-76
2024/02/21 10:16:07;;;;;;;16.88;8.23;;;;;;;;;;5033932;28;20245;-76
2024/02/21 10:18:36;;;;;;;16.15;8.35;;;;;;;;;;5009120;28;20287;-76
2024/02/21 10:21:06;;;;;;;13.32;8.00;;;;;;;;;;5021956;28;20554;-76
2024/02/21 10:23:43;;;;;;;19.83;7.90;;;;;;;;;;5026564;28;20186;-76
2024/02/21 10:26:09;;;;;;;12.30;7.43;;;;;;;;;;5015542;28;20649;-76
2024/02/21 10:28:34;;;;;;;12.63;7.38;;;;;;;;;;5027177;28;20205;-78
2024/02/21 10:31:00;;;;;;;18.00;8.20;;;;;;;;;;5026848;28;20729;-77
2024/02/21 10:33:28;;;;;;;16.88;8.07;;;;;;;;;;5028987;28;20677;-77
2024/02/21 10:35:54;;;;;;;18.38;7.95;;;;;;;;;;5029298;28;20186;-79
2024/02/21 10:38:20;;;;;;;13.63;7.18;;;;;;;;;;5010695;28;20194;-77
2024/02/21 10:40:46;;;;;;;13.20;7.38;;;;;;;;;;5021433;28;20516;-77
2024/02/21 10:43:14;;;;;;;12.63;7.57;;;;;;;;;;5021835;28;20234;-77
2024/02/21 10:45:41;;;;;;;14.02;6.97;;;;;;;;;;5019199;28;20190;-77
2024/02/21 10:48:14;;;;;;;13.52;7.35;;;;;;;;;;5010650;28;20256;-77
2024/02/21 10:50:58;;;;;;;12.82;6.55;;;;;;;;;;5025884;28;20229;-77
2024/02/21 10:53:43;;;;;;;12.05;6.25;;;;;;;;;;5034296;28;20256;-77
2024/02/21 10:56:30;;;;;;;12.45;6.60;;;;;;;;;;5041599;28;20201;-77
2024/02/21 10:58:58;;;;;;;14.73;6.47;;;;;;;;;;5019876;28;20426;-77
2024/02/21 11:01:23;;;;;;;11.77;6.05;;;;;;;;;;5007775;28;20182;-77
2024/02/21 11:03:52;;;;;;;14.13;6.32;;;;;;;;;;5027727;28;20204;-77
2024/02/21 11:06:19;;;;;;;9.75;6.43;;;;;;;;;;5037091;28;20205;-77
2024/02/21 11:08:45;;;;;;;8.63;5.97;;;;;;;;;;5042612;28;20231;-77
2024/02/21 11:11:17;;;;;;;11.48;6.13;;;;;;;;;;5035283;28;20684;-77
2024/02/21 11:13:43;;;;;;;13.00;5.60;;;;;;;;;;5036830;28;20299;-76
2024/02/21 11:16:21;;;;;;;11.07;5.57;;;;;;;;;;5037625;28;20234;-77
2024/02/21 11:18:47;;;;;;;9.57;5.53;;;;;;;;;;5037002;28;20313;-78
2024/02/21 11:21:12;;;;;;;11.30;5.30;;;;;;;;;;5016585;28;20186;-76
2024/02/21 11:23:38;;;;;;;12.77;5.20;;;;;;;;;;5034878;28;20193;-76
2024/02/21 11:26:05;;;;;;;10.85;5.07;;;;;;;;;;5037409;28;20717;-77
2024/02/21 11:28:31;;;;;;;13.88;5.47;;;;;;;;;;5032528;28;20186;-78
2024/02/21 11:31:08;;;;;;;11.25;5.32;;;;;;;;;;5025952;28;20268;-78
2024/02/21 11:33:34;;;;;;;9.07;4.80;;;;;;;;;;5016382;28;20193;-78
2024/02/21 11:35:59;;;;;;;9.43;3.92;;;;;;;;;;5017982;28;20185;-77
2024/02/21 11:38:25;;;;;;;10.27;4.43;;;;;;;;;;5042472;28;20186;-77
2024/02/21 11:40:51;;;;;;;9.13;4.30;;;;;;;;;;5013506;28;20637;-77
2024/02/21 11:43:16;;;;;;;10.15;3.92;;;;;;;;;;5035197;28;20580;-77
2024/02/21 11:45:42;;;;;;;8.68;3.47;;;;;;;;;;5016119;28;20205;-77
2024/02/21 11:48:07;;;;;;;7.75;3.63;;;;;;;;;;5032463;28;20320;-77
2024/02/21 11:50:36;;;;;;;4.90;3.08;;;;;;;;;;5046685;28;20217;-76
2024/02/21 11:53:01;;;;;;;4.30;3.10;;;;;;;;;;5030020;28;20202;-77
2024/02/21 11:55:27;;;;;;;5.00;3.45;;;;;;;;;;5028935;28;20217;-76
2024/02/21 11:57:53;;;;;;;7.90;3.35;;;;;;;;;;5035424;28;20681;-76
2024/02/21 12:00:24;;;;;;;6.53;3.72;;;;;;;;;;4331590;28;10000811;-77
2024/02/21 12:02:50;;;;;;;5.32;3.70;;;;;;;;;;5031073;28;20602;-76
2024/02/21 12:05:16;;;;;;;8.82;3.97;;;;;;;;;;5037425;28;20190;-77
2024/02/21 12:07:42;;;;;;;6.45;3.92;;;;;;;;;;5039713;28;20194;-76
2024/02/21 12:10:11;;;;;;;8.02;4.25;;;;;;;;;;5028717;28;20214;-76
2024/02/21 12:12:40;;;;;;;7.00;4.10;;;;;;;;;;5013959;28;20194;-76
2024/02/21 12:15:06;;;;;;;6.68;4.00;;;;;;;;;;5016175;28;20196;-76
2024/02/21 12:17:36;;;;;;;7.13;4.30;;;;;;;;;;5030128;28;20181;-78
2024/02/21 12:20:05;;;;;;;6.40;4.13;;;;;;;;;;5039377;28;20741;-76
2024/02/21 12:22:34;;;;;;;11.10;5.45;;;;;;;;;;5032074;28;20264;-76
2024/02/21 12:25:03;;;;;;;9.77;4.88;;;;;;;;;;5040381;28;20182;-76
2024/02/21 12:27:28;;;;;;;7.60;4.70;;;;;;;;;;5012542;28;20552;-78
2024/02/21 12:29:54;;;;;;;6.75;4.75;;;;;;;;;;5037557;28;20213;-76
2024/02/21 12:32:19;;;;;;;10.13;5.38;;;;;;;;;;5033492;28;20194;-78
2024/02/21 12:34:45;;;;;;;9.18;5.57;;;;;;;;;;5023883;28;20713;-77
2024/02/21 12:37:12;;;;;;;12.13;5.40;;;;;;;;;;5026917;28;20556;-76
2024/02/21 12:39:38;;;;;;;16.17;6.38;;;;;;;;;;5020066;28;20221;-77
2024/02/21 12:42:04;;;;;;;14.35;6.10;;;;;;;;;;5036716;28;20190;-77
2024/02/21 12:44:29;;;;;;;12.88;5.80;;;;;;;;;;5032814;28;20194;-77
2024/02/21 12:46:55;;;;;;;15.93;5.60;;;;;;;;;;5028347;28;20292;-77
2024/02/21 12:49:20;;;;;;;13.23;5.90;;;;;;;;;;5038157;28;20254;-76
2024/02/21 12:51:49;;;;;;;9.82;5.47;;;;;;;;;;5017327;28;20680;-76
2024/02/21 12:54:14;;;;;;;11.90;5.38;;;;;;;;;;5025728;28;20208;-76
2024/02/21 12:56:40;;;;;;;14.02;5.70;;;;;;;;;;5042308;28;20193;-78
2024/02/21 12:59:09;;;;;;;12.32;5.63;;;;;;;;;;5040514;28;20196;-77
2024/02/21 13:01:37;;;;;;;11.30;5.97;;;;;;;;;;5029416;28;20182;-76
2024/02/21 13:04:03;;;;;;;9.63;5.43;;;;;;;;;;5024802;28;20305;-76
2024/02/21 13:06:28;;;;;;;9.43;5.70;;;;;;;;;;5031644;28;20311;-77
2024/02/21 13:08:54;;;;;;;8.20;5.43;;;;;;;;;;5027035;28;20554;-76
2024/02/21 13:11:19;;;;;;;11.55;5.45;;;;;;;;;;5026507;28;20304;-76
2024/02/21 13:13:45;;;;;;;12.32;5.53;;;;;;;;;;5025032;28;20234;-78
2024/02/21 13:16:11;;;;;;;9.82;5.07;;;;;;;;;;5034628;28;20190;-77
2024/02/21 13:18:38;;;;;;;11.60;4.63;;;;;;;;;;5028733;28;20244;-77
2024/02/21 13:21:04;;;;;;;11.88;4.80;;;;;;;;;;5033710;28;20283;-76
2024/02/21 13:23:30;;;;;;;10.50;4.50;;;;;;;;;;5015974;28;20591;-76
2024/02/21 13:25:55;;;;;;;13.50;5.53;;;;;;;;;;5023753;28;20287;-76
2024/02/21 13:28:21;;;;;;;8.02;4.50;;;;;;;;;;5033036;28;20213;-76
2024/02/21 13:30:46;;;;;;;11.18;4.50;;;;;;;;;;5035563;28;20519;-76
2024/02/21 13:33:12;;;;;;;11.65;4.55;;;;;;;;;;5043284;28;20219;-78
2024/02/21 13:35:38;;;;;;;10.82;4.25;;;;;;;;;;5039258;28;20196;-76
2024/02/21 13:38:04;;;;;;;7.93;4.50;;;;;;;;;;5041099;28;20178;-78
2024/02/21 13:40:29;;;;;;;7.10;4.55;;;;;;;;;;5032312;28;20229;-78
2024/02/21 13:42:55;;;;;;;12.02;4.93;;;;;;;;;;5030618;28;20646;-78
2024/02/21 13:45:20;;;;;;;8.23;4.35;;;;;;;;;;5032861;28;20189;-79
2024/02/21 13:47:46;;;;;;;9.65;5.10;;;;;;;;;;5034634;28;20532;-78
2024/02/21 13:50:14;;;;;;;12.65;4.30;;;;;;;;;;5045059;28;20704;-77
2024/02/21 13:52:40;;;;;;;10.27;4.55;;;;;;;;;;5037154;28;20216;-79
2024/02/21 13:55:08;;;;;;;10.98;4.32;;;;;;;;;;5009783;28;20186;-77
2024/02/21 13:57:37;;;;;;;9.40;4.22;;;;;;;;;;5032079;28;20193;-76
2024/02/21 14:00:04;;;;;;;8.77;3.88;;;;;;;;;;5029898;28;20234;-77
2024/02/21 14:02:31;;;;;;;12.60;4.47;;;;;;;;;;5036161;28;20268;-76
2024/02/21 14:04:56;;;;;;;10.98;4.32;;;;;;;;;;5036747;28;20265;-77
2024/02/21 14:07:22;;;;;;;9.98;4.50;;;;;;;;;;5026911;28;20909;-78
2024/02/21 14:09:47;;;;;;;11.60;5.32;;;;;;;;;;5035671;28;20205;-77
2024/02/21 14:12:13;;;;;;;8.55;4.57;;;;;;;;;;5032068;28;20205;-78
2024/02/21 14:14:39;;;;;;;12.35;4.22;;;;;;;;;;5029963;28;20204;-77
2024/02/21 14:17:04;;;;;;;9.35;4.57;;;;;;;;;;5047423;28;20503;-76